Time;durP1;ratioP1;P1;durP2;ratioP2;P2;SDS_P1;SDS_P2;PMS_P1;PMS_P2;Temp;Humidity;BMP_temperature;BMP_pressure;BME280_temperature;BME280_humidity;BME280_pressure;Samples;Min_cycle;Max_cycle;Signal;HPM_P1;HPM_P2
2023/10/08 00:00:46;;;;;;;2.95;1.42;;;13.40;99.90;;;;;;5152997;27;20482;-70
2023/10/08 00:03:13;;;;;;;1.48;0.55;;;13.40;99.90;;;;;;5133866;27;20129;-70
2023/10/08 00:05:40;;;;;;;2.38;0.90;;;13.30;99.90;;;;;;5134361;27;20111;-70
2023/10/08 00:08:10;;;;;;;6.25;1.48;;;13.30;99.90;;;;;;5152747;27;20035;-70
2023/10/08 00:10:40;;;;;;;3.45;1.33;;;13.30;99.90;;;;;;5134019;27;20054;-69
2023/10/08 00:13:09;;;;;;;3.00;0.80;;;13.30;99.90;;;;;;5134567;27;20057;-70
2023/10/08 00:15:37;;;;;;;2.30;0.77;;;13.30;99.90;;;;;;5134740;27;20538;-70
2023/10/08 00:18:05;;;;;;;1.25;0.52;;;13.30;99.90;;;;;;5129228;27;20486;-71
2023/10/08 00:20:42;;;;;;;1.35;0.70;;;13.30;99.90;;;;;;5118519;27;20046;-71
2023/10/08 00:23:10;;;;;;;1.30;0.60;;;13.30;99.90;;;;;;5133406;27;20049;-72
2023/10/08 00:25:40;;;;;;;3.22;0.63;;;13.30;99.90;;;;;;5114512;27;20115;-70
2023/10/08 00:28:11;;;;;;;1.58;0.52;;;13.20;99.90;;;;;;5115163;27;20094;-71
2023/10/08 00:30:41;;;;;;;1.35;0.60;;;13.30;99.90;;;;;;5115095;27;20043;-71
2023/10/08 00:33:11;;;;;;;1.17;0.60;;;13.20;99.90;;;;;;5132605;27;20059;-71
2023/10/08 00:35:41;;;;;;;1.38;0.60;;;13.30;99.90;;;;;;5133334;27;20039;-69
2023/10/08 00:38:14;;;;;;;;;;;13.30;99.90;;;;;;5115086;27;20058;-70
2023/10/08 00:40:45;;;;;;;3.08;0.70;;;13.30;99.90;;;;;;5131510;27;20010;-71
2023/10/08 00:43:28;;;;;;;3.03;0.70;;;13.30;99.90;;;;;;5133006;27;20087;-70
2023/10/08 00:45:55;;;;;;;1.38;0.60;;;13.20;99.90;;;;;;5114049;27;20090;-71
2023/10/08 00:48:28;;;;;;;1.50;0.53;;;13.20;99.90;;;;;;5133340;27;20050;-70
2023/10/08 00:51:09;;;;;;;2.60;0.70;;;13.30;99.90;;;;;;5136884;27;20564;-71
2023/10/08 00:53:39;;;;;;;1.70;0.80;;;13.30;99.90;;;;;;5137826;27;20372;-71
2023/10/08 00:56:12;;;;;;;;;;;13.30;99.90;;;;;;5138607;27;20050;-71
2023/10/08 00:58:40;;;;;;;4.82;0.65;;;13.30;99.90;;;;;;5137962;27;19922;-71
2023/10/08 01:01:10;;;;;;;2.40;0.70;;;13.20;99.90;;;;;;5136880;27;20521;-71
2023/10/08 01:03:43;;;;;;;1.93;0.80;;;13.20;99.90;;;;;;5138157;27;20133;-71
2023/10/08 01:06:11;;;;;;;1.50;0.70;;;13.20;99.90;;;;;;5137922;27;20321;-71
2023/10/08 01:08:47;;;;;;;4.57;0.70;;;13.30;99.90;;;;;;5155394;27;20485;-69
2023/10/08 01:11:30;;;;;;;5.03;1.08;;;13.30;99.90;;;;;;5137657;27;20051;-71
2023/10/08 01:13:58;;;;;;;4.55;1.48;;;13.30;99.90;;;;;;5137309;27;20510;-70
2023/10/08 01:16:27;;;;;;;6.38;1.60;;;13.20;99.90;;;;;;5155886;27;20050;-70
2023/10/08 01:18:55;;;;;;;2.72;1.08;;;13.30;99.90;;;;;;5137688;27;20051;-70
2023/10/08 01:21:34;;;;;;;4.25;1.10;;;13.20;99.90;;;;;;5155248;27;20046;-70
2023/10/08 01:24:05;;;;;;;3.05;1.13;;;13.30;99.90;;;;;;5137766;27;20053;-71
2023/10/08 01:26:33;;;;;;;8.98;1.92;;;13.20;99.90;;;;;;5137638;27;20047;-71
2023/10/08 01:29:06;;;;;;;3.97;1.33;;;13.20;99.90;;;;;;5136675;27;20047;-70
2023/10/08 01:31:33;;;;;;;5.38;1.42;;;13.30;99.90;;;;;;5137288;27;20042;-70
2023/10/08 01:34:04;;;;;;;5.55;1.52;;;13.20;99.90;;;;;;5117981;27;20462;-71
2023/10/08 01:36:31;;;;;;;4.78;0.95;;;13.20;99.90;;;;;;5117479;27;20043;-71
2023/10/08 01:39:01;;;;;;;5.57;1.23;;;13.20;99.90;;;;;;5135877;27;20039;-70
2023/10/08 01:41:30;;;;;;;6.07;1.10;;;13.20;99.90;;;;;;5117414;27;20040;-70
2023/10/08 01:43:58;;;;;;;6.50;1.13;;;13.20;99.90;;;;;;5116808;27;20099;-70
2023/10/08 01:46:27;;;;;;;3.22;1.17;;;13.20;99.90;;;;;;5117941;27;20130;-70
2023/10/08 01:49:03;;;;;;;4.07;1.10;;;13.20;99.90;;;;;;5116973;27;20067;-70
2023/10/08 01:51:38;;;;;;;6.65;1.38;;;13.20;99.90;;;;;;5117224;27;20043;-70
2023/10/08 01:54:10;;;;;;;5.30;1.55;;;13.30;99.90;;;;;;5117691;27;20050;-70
2023/10/08 01:56:41;;;;;;;5.68;0.98;;;13.20;99.90;;;;;;5116996;27;20124;-70
2023/10/08 01:59:09;;;;;;;5.07;1.30;;;13.30;99.90;;;;;;5117347;27;20062;-71
2023/10/08 02:01:38;;;;;;;3.75;1.27;;;13.20;99.90;;;;;;5116613;27;20046;-71
2023/10/08 02:04:06;;;;;;;5.03;1.17;;;13.20;99.90;;;;;;5116655;27;20043;-70
2023/10/08 02:06:34;;;;;;;5.35;1.20;;;13.20;99.90;;;;;;5117393;27;20440;-70
2023/10/08 02:09:06;;;;;;;3.72;0.90;;;13.30;99.90;;;;;;5135446;27;20047;-70
2023/10/08 02:11:43;;;;;;;4.53;0.80;;;13.30;99.90;;;;;;5116551;27;20039;-70
2023/10/08 02:14:12;;;;;;;4.63;1.48;;;13.30;99.90;;;;;;5135548;27;20121;-70
2023/10/08 02:16:40;;;;;;;2.97;1.00;;;13.20;99.90;;;;;;5117101;27;20118;-70
2023/10/08 02:19:10;;;;;;;4.03;0.90;;;13.30;99.90;;;;;;5134887;27;20061;-69
2023/10/08 02:21:39;;;;;;;3.60;1.00;;;13.20;99.90;;;;;;5135054;27;20453;-70
2023/10/08 02:24:08;;;;;;;7.10;1.40;;;13.20;99.90;;;;;;5116508;27;20045;-71
2023/10/08 02:26:35;;;;;;;3.08;1.30;;;13.20;99.90;;;;;;5116721;27;20039;-72
2023/10/08 02:29:06;;;;;;;5.10;1.15;;;13.20;99.90;;;;;;5116770;27;20046;-72
2023/10/08 02:31:34;;;;;;;6.03;1.20;;;13.20;99.90;;;;;;5116161;27;20043;-72
2023/10/08 02:34:01;;;;;;;3.60;1.15;;;13.20;99.90;;;;;;5116875;27;20475;-72
2023/10/08 02:36:28;;;;;;;5.75;1.60;;;13.10;99.90;;;;;;5116363;27;20054;-71
2023/10/08 02:38:55;;;;;;;7.50;1.63;;;13.10;99.90;;;;;;5115738;27;20046;-72
2023/10/08 02:41:24;;;;;;;3.83;1.10;;;13.10;99.90;;;;;;5116235;27;20039;-70
2023/10/08 02:43:51;;;;;;;3.95;1.27;;;13.20;99.90;;;;;;5138833;27;20515;-71
2023/10/08 02:46:18;;;;;;;5.07;1.20;;;13.10;99.90;;;;;;5116024;27;20051;-71
2023/10/08 02:48:47;;;;;;;6.32;1.20;;;13.10;99.90;;;;;;5126501;27;20042;-71
2023/10/08 02:51:14;;;;;;;5.65;1.10;;;13.10;99.90;;;;;;5131981;27;20050;-70
2023/10/08 02:53:43;;;;;;;5.78;1.08;;;13.10;99.90;;;;;;5132083;27;20039;-70
2023/10/08 02:56:14;;;;;;;4.07;1.20;;;13.10;99.90;;;;;;5132205;27;20084;-71
2023/10/08 02:58:43;;;;;;;9.75;1.60;;;13.10;99.90;;;;;;5133655;27;20501;-71
2023/10/08 03:01:12;;;;;;;4.63;1.15;;;13.10;99.90;;;;;;5131413;27;20043;-70
2023/10/08 03:03:41;;;;;;;6.05;1.17;;;13.10;99.90;;;;;;5133135;27;20100;-70
2023/10/08 03:06:11;;;;;;;5.57;1.40;;;13.10;99.90;;;;;;5131807;27;20535;-69
2023/10/08 03:08:40;;;;;;;3.72;1.17;;;13.10;99.90;;;;;;5131964;27;20062;-69
2023/10/08 03:11:16;;;;;;;8.13;1.42;;;13.00;99.90;;;;;;5131588;27;20043;-70
2023/10/08 03:13:46;;;;;;;3.75;1.20;;;13.00;99.90;;;;;;5131397;27;20126;-70
2023/10/08 03:16:14;;;;;;;3.83;1.27;;;13.00;99.90;;;;;;5112615;28;20403;-69
2023/10/08 03:18:45;;;;;;;5.68;1.20;;;12.90;99.90;;;;;;5112794;28;20055;-69
2023/10/08 03:21:43;;;;;;;4.85;1.65;;;13.00;99.90;;;;;;5112041;27;20036;-70
2023/10/08 03:24:29;;;;;;;4.00;1.45;;;13.00;99.90;;;;;;5113045;27;20051;-69
2023/10/08 03:27:05;;;;;;;4.35;1.30;;;13.00;99.90;;;;;;5133025;27;20134;-70
2023/10/08 03:29:40;;;;;;;3.90;1.20;;;13.00;99.90;;;;;;5112611;28;20385;-69
2023/10/08 03:32:12;;;;;;;7.03;1.60;;;13.00;99.90;;;;;;5112193;28;20044;-71
2023/10/08 03:34:43;;;;;;;6.93;1.60;;;13.00;99.90;;;;;;5111813;28;20055;-70
2023/10/08 03:37:15;;;;;;;3.45;1.25;;;13.00;99.90;;;;;;5129869;27;20108;-70
2023/10/08 03:40:07;;;;;;;5.68;1.52;;;13.00;99.90;;;;;;5131254;27;20135;-71
2023/10/08 03:42:40;;;;;;;5.13;1.20;;;13.00;99.90;;;;;;5130671;27;20058;-70
2023/10/08 03:45:12;;;;;;;3.67;1.35;;;13.00;99.90;;;;;;5131488;27;20100;-70
2023/10/08 03:47:46;;;;;;;4.10;1.10;;;13.00;99.90;;;;;;5131716;27;20095;-70
2023/10/08 03:50:17;;;;;;;5.32;1.63;;;13.00;99.90;;;;;;5130813;27;20108;-70
2023/10/08 03:52:46;;;;;;;9.23;1.63;;;13.00;99.90;;;;;;5132447;27;20047;-70
2023/10/08 03:55:21;;;;;;;14.80;1.75;;;13.10;99.90;;;;;;5130954;27;20538;-71
2023/10/08 03:57:56;;;;;;;4.93;1.15;;;13.10;99.90;;;;;;5131206;27;20051;-70
2023/10/08 04:00:31;;;;;;;3.15;1.13;;;13.10;99.90;;;;;;5131319;27;20096;-70
2023/10/08 04:03:00;;;;;;;7.68;1.42;;;13.10;99.90;;;;;;5130401;28;20050;-71
2023/10/08 04:05:33;;;;;;;4.77;1.33;;;13.10;99.90;;;;;;5131461;28;20043;-70
2023/10/08 04:08:17;;;;;;;5.22;1.52;;;13.10;99.90;;;;;;5131082;28;20050;-71
2023/10/08 04:13:31;;;;;;;8.90;1.60;;;13.20;99.90;;;;;;5129023;28;20107;-70
2023/10/08 04:15:58;;;;;;;6.10;1.42;;;13.20;99.90;;;;;;5130846;28;20074;-71
2023/10/08 04:18:25;;;;;;;6.82;1.70;;;13.20;99.90;;;;;;5130381;28;20491;-70
2023/10/08 04:21:08;;;;;;;5.57;1.60;;;13.20;99.90;;;;;;5131065;28;20046;-70
2023/10/08 04:23:38;;;;;;;6.47;1.98;;;13.20;99.90;;;;;;5132844;27;20047;-70
2023/10/08 04:26:06;;;;;;;5.30;1.48;;;13.20;99.90;;;;;;5135500;27;20043;-70
2023/10/08 04:28:34;;;;;;;4.10;1.35;;;13.20;99.90;;;;;;5134632;27;20047;-70
2023/10/08 04:31:14;;;;;;;5.03;1.38;;;13.20;99.90;;;;;;5134834;27;20043;-72
2023/10/08 04:33:45;;;;;;;7.82;2.42;;;13.20;99.90;;;;;;5135237;27;20054;-71
2023/10/08 04:36:18;;;;;;;7.35;2.05;;;13.20;99.90;;;;;;5116696;27;20059;-71
2023/10/08 04:38:47;;;;;;;7.15;2.20;;;13.20;99.90;;;;;;5132622;27;20047;-70
2023/10/08 04:41:18;;;;;;;12.60;2.30;;;13.20;99.90;;;;;;5134923;27;20486;-71
2023/10/08 04:43:49;;;;;;;7.45;2.25;;;13.20;99.90;;;;;;5134947;27;20047;-71
2023/10/08 04:46:34;;;;;;;17.58;2.10;;;13.20;99.90;;;;;;5123484;27;20220;-70
2023/10/08 04:49:05;;;;;;;6.93;1.85;;;13.20;99.90;;;;;;5135774;27;20047;-70
2023/10/08 04:51:37;;;;;;;16.35;2.05;;;13.20;99.90;;;;;;5133874;27;20055;-71
2023/10/08 04:54:06;;;;;;;5.22;1.77;;;13.20;99.90;;;;;;5115473;27;20407;-71
2023/10/08 04:56:33;;;;;;;7.75;2.42;;;13.20;99.90;;;;;;5115206;27;20047;-71
2023/10/08 04:59:00;;;;;;;8.80;1.95;;;13.20;99.90;;;;;;5115585;27;20046;-71
2023/10/08 05:01:38;;;;;;;7.63;2.45;;;13.20;99.90;;;;;;5114767;28;20050;-71
2023/10/08 05:04:23;;;;;;;5.97;2.58;;;13.20;99.90;;;;;;5132340;27;20140;-71
2023/10/08 05:07:17;;;;;;;8.13;2.20;;;13.10;99.90;;;;;;5134171;27;20403;-71
2023/10/08 05:10:02;;;;;;;9.38;2.30;;;13.10;99.90;;;;;;5134302;27;20043;-70
2023/10/08 05:12:34;;;;;;;9.43;2.15;;;13.10;99.90;;;;;;5134560;27;20043;-69
2023/10/08 05:17:58;;;;;;;5.65;2.00;;;13.10;99.90;;;;;;5134456;27;20035;-71
2023/10/08 05:20:56;;;;;;;13.95;3.05;;;13.10;99.90;;;;;;5135046;27;20074;-70
2023/10/08 05:23:53;;;;;;;7.63;2.08;;;13.10;99.90;;;;;;5119033;27;20527;-71
2023/10/08 05:26:30;;;;;;;8.50;1.60;;;13.00;99.90;;;;;;5133560;27;20498;-71
2023/10/08 05:29:25;;;;;;;7.38;1.80;;;13.00;99.90;;;;;;5133378;27;20047;-71
2023/10/08 05:31:59;;;;;;;4.35;1.38;;;13.00;99.90;;;;;;5133316;27;20047;-72
2023/10/08 05:34:42;;;;;;;5.05;1.48;;;13.00;99.90;;;;;;5132700;27;20126;-72
2023/10/08 05:37:32;;;;;;;6.82;1.90;;;13.00;99.90;;;;;;5133801;27;20058;-71
2023/10/08 05:40:12;;;;;;;7.60;2.00;;;13.00;99.90;;;;;;5133490;27;20071;-71
2023/10/08 05:42:46;;;;;;;5.70;1.95;;;13.00;99.90;;;;;;5133109;27;20043;-70
2023/10/08 05:45:29;;;;;;;13.10;2.50;;;13.00;99.90;;;;;;5116605;27;20055;-70
2023/10/08 05:48:08;;;;;;;5.28;1.67;;;13.00;99.90;;;;;;5123029;27;20047;-71
2023/10/08 05:50:43;;;;;;;6.65;1.90;;;13.10;99.90;;;;;;5116285;27;20152;-71
2023/10/08 05:53:29;;;;;;;9.27;2.78;;;13.10;99.90;;;;;;5117741;27;20438;-71
2023/10/08 05:56:16;;;;;;;10.30;2.33;;;13.10;99.90;;;;;;5124514;27;20044;-70
2023/10/08 05:58:59;;;;;;;14.68;1.88;;;13.10;99.90;;;;;;5122627;27;20051;-71
2023/10/08 06:01:39;;;;;;;7.18;1.92;;;13.10;99.90;;;;;;5118206;27;20043;-70
2023/10/08 06:04:20;;;;;;;7.85;2.08;;;13.10;99.90;;;;;;5118975;27;20053;-70
2023/10/08 06:06:57;;;;;;;8.52;2.33;;;13.10;99.90;;;;;;5113260;27;20043;-70
2023/10/08 06:09:35;;;;;;;6.57;2.25;;;13.10;99.90;;;;;;5120552;27;20057;-70
2023/10/08 06:12:19;;;;;;;8.63;2.50;;;13.20;99.90;;;;;;5114010;27;20039;-71
2023/10/08 06:15:03;;;;;;;7.53;1.92;;;13.10;99.90;;;;;;5113917;27;20085;-70
2023/10/08 06:17:55;;;;;;;5.72;1.70;;;13.20;99.90;;;;;;5115596;27;20517;-70
2023/10/08 06:20:25;;;;;;;10.75;2.25;;;13.20;99.90;;;;;;5120513;27;20105;-71
2023/10/08 06:22:59;;;;;;;5.43;2.47;;;13.20;99.90;;;;;;5119519;27;20040;-70
2023/10/08 06:25:27;;;;;;;10.85;3.25;;;13.30;99.90;;;;;;5125144;27;20052;-71
2023/10/08 06:27:58;;;;;;;7.22;2.50;;;13.30;99.90;;;;;;5117531;27;20552;-71
2023/10/08 06:30:29;;;;;;;6.32;2.15;;;13.30;99.90;;;;;;5122609;27;20460;-71
2023/10/08 06:32:56;;;;;;;;;;;13.30;99.90;;;;;;5121195;27;20491;-70
2023/10/08 06:35:25;;;;;;;9.52;2.50;;;13.30;99.90;;;;;;5118770;27;20344;-70
2023/10/08 06:37:55;;;;;;;6.57;2.15;;;13.30;99.90;;;;;;5116382;27;20079;-70
2023/10/08 06:40:42;;;;;;;9.98;2.53;;;13.40;99.90;;;;;;5113746;27;20052;-70
2023/10/08 06:43:21;;;;;;;6.18;2.47;;;13.40;99.90;;;;;;5118564;27;20067;-71
2023/10/08 06:45:53;;;;;;;8.60;2.30;;;13.50;99.90;;;;;;5121100;27;20050;-71
2023/10/08 06:48:21;;;;;;;8.10;2.33;;;13.60;99.90;;;;;;5122349;27;20086;-71
2023/10/08 06:50:49;;;;;;;11.00;2.38;;;13.70;99.90;;;;;;5110513;27;20480;-71
2023/10/08 06:53:17;;;;;;;7.97;2.80;;;13.90;99.90;;;;;;5108714;28;20051;-71
2023/10/08 06:55:47;;;;;;;7.07;2.40;;;13.90;99.90;;;;;;5113000;28;20502;-71
2023/10/08 06:58:16;;;;;;;7.95;2.45;;;14.00;99.90;;;;;;5109576;28;20093;-71
2023/10/08 07:00:48;;;;;;;6.43;1.98;;;14.00;99.90;;;;;;5111727;28;20083;-70
2023/10/08 07:03:17;;;;;;;6.00;1.48;;;13.90;99.90;;;;;;5111321;28;20552;-71
2023/10/08 07:05:54;;;;;;;6.22;2.08;;;13.90;99.90;;;;;;5110545;28;20536;-72
2023/10/08 07:08:23;;;;;;;6.28;2.10;;;13.90;99.90;;;;;;5111843;28;20479;-70
2023/10/08 07:10:51;;;;;;;10.00;1.73;;;14.10;99.90;;;;;;5111233;28;20126;-70
2023/10/08 07:13:19;;;;;;;7.60;2.45;;;14.10;99.90;;;;;;5111207;28;20108;-69
2023/10/08 07:15:45;;;;;;;7.90;1.70;;;14.30;99.90;;;;;;5111408;28;20047;-69
2023/10/08 07:18:14;;;;;;;9.95;2.80;;;14.50;99.90;;;;;;5111417;28;20130;-71
2023/10/08 07:20:53;;;;;;;5.57;1.58;;;15.00;99.90;;;;;;5110888;28;20096;-71
2023/10/08 07:23:24;;;;;;;6.05;1.55;;;15.30;99.90;;;;;;5111499;28;20047;-70
2023/10/08 07:25:59;;;;;;;4.55;1.50;;;15.90;99.90;;;;;;5111663;28;20082;-71
2023/10/08 07:28:26;;;;;;;9.02;2.20;;;16.00;99.90;;;;;;5109276;28;20050;-71
2023/10/08 07:30:54;;;;;;;6.40;1.80;;;15.90;99.90;;;;;;5111591;28;20445;-72
2023/10/08 07:33:24;;;;;;;5.45;1.50;;;15.80;99.90;;;;;;5110839;28;20074;-71
2023/10/08 07:36:03;;;;;;;6.38;1.77;;;15.60;99.90;;;;;;5111385;28;20051;-71
2023/10/08 07:38:30;;;;;;;6.78;1.80;;;15.40;99.90;;;;;;5109068;28;20071;-71
2023/10/08 07:40:58;;;;;;;7.50;2.00;;;15.20;99.90;;;;;;5110722;28;20581;-71
2023/10/08 07:43:24;;;;;;;8.98;1.90;;;15.00;99.90;;;;;;5108515;28;20044;-71
2023/10/08 07:45:53;;;;;;;7.53;1.85;;;14.90;99.90;;;;;;5111293;28;20059;-71
2023/10/08 07:48:24;;;;;;;6.47;1.95;;;15.00;99.90;;;;;;5110354;28;20051;-71
2023/10/08 07:50:51;;;;;;;11.30;1.60;;;14.90;99.90;;;;;;5126570;27;20130;-71
2023/10/08 07:53:19;;;;;;;7.85;2.22;;;14.90;99.90;;;;;;5134778;27;20055;-71
2023/10/08 07:55:47;;;;;;;7.80;1.95;;;14.80;99.90;;;;;;5152426;27;20046;-72
2023/10/08 07:58:15;;;;;;;6.60;1.88;;;14.70;99.90;;;;;;5152338;27;20070;-72
2023/10/08 08:00:51;;;;;;;5.35;1.77;;;14.70;99.90;;;;;;5134200;27;20053;-71
2023/10/08 08:03:19;;;;;;;6.30;1.70;;;14.70;99.90;;;;;;5113987;27;20071;-72
2023/10/08 08:05:47;;;;;;;5.10;1.60;;;14.60;99.90;;;;;;5132959;27;20043;-72
2023/10/08 08:08:17;;;;;;;6.90;2.00;;;14.70;99.90;;;;;;5115216;27;20047;-71
2023/10/08 08:10:46;;;;;;;8.50;1.87;;;14.80;99.90;;;;;;5115342;27;20078;-72
2023/10/08 08:13:20;;;;;;;5.70;1.48;;;15.00;99.90;;;;;;5137087;27;20053;-71
2023/10/08 08:15:50;;;;;;;7.07;2.50;;;15.10;99.90;;;;;;5133299;27;20050;-71
2023/10/08 08:18:22;;;;;;;6.70;1.80;;;15.10;99.90;;;;;;5134108;27;20047;-71
2023/10/08 08:20:50;;;;;;;9.02;2.33;;;15.40;99.90;;;;;;5134011;27;20091;-70
2023/10/08 08:23:17;;;;;;;8.27;1.83;;;15.70;99.90;;;;;;5128314;27;20103;-71
2023/10/08 08:26:06;;;;;;;5.25;1.77;;;15.90;99.90;;;;;;5115371;27;20115;-71
2023/10/08 08:28:33;;;;;;;8.27;2.03;;;16.10;99.90;;;;;;5134009;27;20059;-70
2023/10/08 08:31:08;;;;;;;8.88;1.75;;;16.20;99.90;;;;;;5133782;27;20047;-74
2023/10/08 08:33:52;;;;;;;5.38;2.25;;;16.30;99.90;;;;;;5132297;27;20097;-73
2023/10/08 08:36:19;;;;;;;8.63;1.85;;;16.40;99.90;;;;;;5133618;27;20078;-73
2023/10/08 08:38:46;;;;;;;10.38;2.00;;;16.50;99.90;;;;;;5152239;27;20443;-72
2023/10/08 08:41:17;;;;;;;10.13;1.92;;;16.60;99.90;;;;;;5133853;27;20042;-69
2023/10/08 08:43:48;;;;;;;7.93;2.45;;;16.60;99.90;;;;;;5113447;27;20124;-70
2023/10/08 08:46:15;;;;;;;6.05;1.90;;;16.70;99.90;;;;;;5145342;27;20066;-71
2023/10/08 08:48:44;;;;;;;10.48;2.15;;;16.70;99.90;;;;;;5123413;27;20042;-72
2023/10/08 08:51:12;;;;;;;8.23;2.38;;;16.80;99.90;;;;;;5110115;28;20055;-70
2023/10/08 08:53:39;;;;;;;4.25;1.20;;;16.90;99.90;;;;;;5111402;28;20039;-70
2023/10/08 08:56:09;;;;;;;7.95;2.10;;;17.00;99.90;;;;;;5108071;28;20079;-70
2023/10/08 08:58:38;;;;;;;8.60;2.05;;;17.10;99.90;;;;;;5109974;28;20055;-70
2023/10/08 09:01:09;;;;;;;10.50;2.07;;;17.20;99.90;;;;;;5108300;28;20128;-70
2023/10/08 09:03:37;;;;;;;8.82;1.88;;;17.20;99.90;;;;;;5109538;28;20479;-70
2023/10/08 09:06:04;;;;;;;7.65;2.85;;;17.20;99.90;;;;;;5109454;28;20051;-70
2023/10/08 09:08:35;;;;;;;11.98;2.45;;;17.30;99.90;;;;;;5102931;28;20063;-70
2023/10/08 09:11:04;;;;;;;8.38;2.53;;;17.60;99.90;;;;;;5109966;28;20119;-69
2023/10/08 09:13:33;;;;;;;5.95;1.27;;;18.40;99.90;;;;;;5109008;28;20052;-69
2023/10/08 09:16:12;;;;;;;8.98;1.60;;;19.20;99.90;;;;;;5110564;28;20491;-69
2023/10/08 09:18:39;;;;;;;9.00;1.42;;;19.70;99.90;;;;;;5112805;28;20743;-70
2023/10/08 09:21:11;;;;;;;6.00;1.95;;;19.90;99.90;;;;;;5112248;28;20051;-70
2023/10/08 09:23:47;;;;;;;7.35;1.83;;;19.80;99.90;;;;;;5111882;28;20123;-70
2023/10/08 09:26:15;;;;;;;8.48;2.08;;;19.30;99.90;;;;;;5112385;28;20070;-70
2023/10/08 09:28:48;;;;;;;8.90;1.92;;;19.30;99.90;;;;;;5113323;28;20560;-70
2023/10/08 09:31:17;;;;;;;7.63;1.65;;;19.60;99.90;;;;;;5109437;28;20052;-69
2023/10/08 09:33:53;;;;;;;5.18;1.65;;;20.00;99.90;;;;;;5111291;28;20043;-70
2023/10/08 09:36:20;;;;;;;5.07;1.85;;;20.00;99.90;;;;;;5110761;28;20515;-70
2023/10/08 09:38:48;;;;;;;5.75;1.50;;;20.00;99.90;;;;;;5109880;28;20062;-70
2023/10/08 09:41:18;;;;;;;4.32;1.60;;;19.90;99.90;;;;;;5112268;28;20108;-71
2023/10/08 09:43:47;;;;;;;5.38;1.60;;;19.80;99.90;;;;;;5113106;28;20100;-71
2023/10/08 09:46:19;;;;;;;6.80;1.77;;;19.60;99.90;;;;;;5110606;28;20522;-70
2023/10/08 09:48:52;;;;;;;3.72;1.52;;;19.40;99.90;;;;;;5112077;28;20074;-70
2023/10/08 09:51:20;;;;;;;5.50;2.00;;;19.40;99.90;;;;;;5111988;28;20115;-70
2023/10/08 09:53:54;;;;;;;7.53;1.50;;;19.30;99.90;;;;;;5111583;28;20056;-70
2023/10/08 09:56:21;;;;;;;6.63;1.55;;;19.40;99.90;;;;;;5110665;28;20097;-70
2023/10/08 09:58:50;;;;;;;6.40;1.70;;;19.40;99.90;;;;;;5112589;28;20055;-70
2023/10/08 10:01:22;;;;;;;5.70;1.35;;;19.40;99.90;;;;;;5111690;28;20052;-70
2023/10/08 10:03:49;;;;;;;5.55;1.67;;;19.70;99.90;;;;;;5111967;28;20192;-71
2023/10/08 10:06:18;;;;;;;6.57;1.48;;;19.90;99.90;;;;;;5111286;28;20438;-72
2023/10/08 10:08:46;;;;;;;7.18;2.03;;;20.10;99.90;;;;;;5111660;28;20456;-70
2023/10/08 10:11:13;;;;;;;5.45;1.88;;;20.60;99.90;;;;;;5111449;28;20048;-71
2023/10/08 10:13:42;;;;;;;5.30;1.80;;;20.80;99.90;;;;;;5112277;28;20044;-70
2023/10/08 10:16:10;;;;;;;5.38;1.60;;;20.90;99.90;;;;;;5110009;28;20512;-71
2023/10/08 10:18:39;;;;;;;4.85;1.60;;;20.80;99.90;;;;;;5111792;28;20482;-71
2023/10/08 10:21:29;;;;;;;5.60;1.50;;;20.70;99.90;;;;;;5112183;28;20156;-71
2023/10/08 10:23:56;;;;;;;9.88;1.75;;;21.30;99.90;;;;;;5109370;28;20050;-70
2023/10/08 10:26:30;;;;;;;10.20;2.30;;;22.20;99.40;;;;;;5111403;28;20054;-70
2023/10/08 10:29:19;;;;;;;5.82;1.73;;;23.30;97.50;;;;;;5110650;28;20054;-70
2023/10/08 10:31:47;;;;;;;6.22;1.40;;;23.10;95.30;;;;;;5107255;28;20122;-70
2023/10/08 10:34:18;;;;;;;3.70;1.35;;;22.70;96.20;;;;;;5110395;28;20040;-70
2023/10/08 10:36:48;;;;;;;9.60;2.45;;;22.70;95.40;;;;;;5109487;28;20047;-70
2023/10/08 10:39:16;;;;;;;7.07;1.88;;;22.50;95.30;;;;;;5109630;28;20514;-69
2023/10/08 10:41:44;;;;;;;5.20;1.75;;;22.40;95.10;;;;;;5113123;28;20047;-70
2023/10/08 10:44:13;;;;;;;5.30;1.60;;;21.90;95.20;;;;;;5107706;28;20047;-70
2023/10/08 10:46:42;;;;;;;6.97;1.40;;;21.60;95.90;;;;;;5110539;28;20380;-70
2023/10/08 10:49:18;;;;;;;7.50;1.50;;;21.30;96.00;;;;;;5108117;27;20047;-70
2023/10/08 10:51:49;;;;;;;5.03;1.60;;;20.90;96.50;;;;;;5120699;27;20043;-70
2023/10/08 10:54:20;;;;;;;5.80;1.42;;;20.90;96.30;;;;;;5120643;27;20067;-70
2023/10/08 10:56:56;;;;;;;7.20;1.50;;;20.80;96.70;;;;;;5121060;27;20540;-70
2023/10/08 10:59:27;;;;;;;7.40;1.50;;;21.50;96.70;;;;;;5137889;27;20043;-71
2023/10/08 11:02:05;;;;;;;8.05;1.73;;;22.50;95.90;;;;;;5118320;27;20051;-70
2023/10/08 11:04:31;;;;;;;6.38;1.70;;;23.60;95.00;;;;;;5133124;27;20050;-70
2023/10/08 11:07:00;;;;;;;4.40;1.10;;;24.20;92.50;;;;;;5131275;27;20042;-71
2023/10/08 11:09:37;;;;;;;10.27;1.60;;;24.20;92.00;;;;;;5121082;27;20077;-70
2023/10/08 11:12:10;;;;;;;5.90;1.70;;;24.00;92.10;;;;;;5117704;27;20043;-70
2023/10/08 11:14:41;;;;;;;7.72;2.15;;;23.90;92.60;;;;;;5136025;27;20038;-70
2023/10/08 11:17:15;;;;;;;5.07;1.52;;;23.30;92.50;;;;;;5123435;27;20050;-71
2023/10/08 11:19:45;;;;;;;6.20;1.42;;;23.30;92.90;;;;;;5127106;27;20112;-70
2023/10/08 11:22:17;;;;;;;4.82;1.50;;;23.10;92.50;;;;;;5117053;27;20104;-70
2023/10/08 11:24:47;;;;;;;6.05;1.70;;;22.40;92.30;;;;;;5127445;27;20126;-70
2023/10/08 11:27:17;;;;;;;;;;;21.90;93.30;;;;;;5115433;27;20086;-70
2023/10/08 11:29:46;;;;;;;;;;;21.60;94.30;;;;;;5132189;27;19966;-70
2023/10/08 11:32:15;;;;;;;6.72;2.13;;;21.40;93.80;;;;;;5132676;27;19919;-70
2023/10/08 11:34:43;;;;;;;6.13;1.60;;;21.40;94.60;;;;;;5118252;27;20043;-70
2023/10/08 11:37:20;;;;;;;7.30;1.60;;;21.50;94.80;;;;;;5120848;27;20743;-70
2023/10/08 11:39:48;;;;;;;6.55;1.88;;;21.30;94.50;;;;;;5123436;27;20051;-71
2023/10/08 11:42:40;;;;;;;5.95;1.60;;;21.30;94.70;;;;;;5123570;27;20073;-71
2023/10/08 11:45:24;;;;;;;7.00;1.55;;;21.30;94.50;;;;;;5127369;27;20035;-70
2023/10/08 11:47:55;;;;;;;6.30;1.50;;;21.10;94.70;;;;;;5125698;27;20054;-70
2023/10/08 11:50:30;;;;;;;6.22;1.40;;;21.20;94.90;;;;;;5142441;27;20059;-70
2023/10/08 11:53:05;;;;;;;6.00;1.52;;;21.10;94.40;;;;;;5118431;27;20043;-69
2023/10/08 11:55:35;;;;;;;6.10;1.50;;;20.80;95.30;;;;;;5142420;27;20035;-70
2023/10/08 11:58:09;;;;;;;4.55;1.42;;;21.00;95.80;;;;;;5116741;27;20089;-69
2023/10/08 12:00:43;;;;;;;7.05;1.40;;;21.10;95.30;;;;;;5139024;27;20043;-70
2023/10/08 12:03:11;;;;;;;7.38;2.03;;;21.30;95.00;;;;;;5120516;27;20141;-71
2023/10/08 12:05:46;;;;;;;4.32;1.63;;;21.40;94.20;;;;;;5123786;27;20479;-70
2023/10/08 12:08:16;;;;;;;5.72;1.35;;;21.70;93.70;;;;;;5138471;27;20138;-70
2023/10/08 12:10:45;;;;;;;6.72;1.55;;;21.80;93.40;;;;;;5116535;27;20423;-70
2023/10/08 12:13:13;;;;;;;5.60;1.70;;;21.50;93.60;;;;;;5123711;27;20051;-69
2023/10/08 12:15:41;;;;;;;5.40;1.60;;;21.40;94.70;;;;;;5118955;27;20050;-71
2023/10/08 12:18:15;;;;;;;5.45;1.40;;;21.20;93.90;;;;;;5115609;27;20055;-70
2023/10/08 12:20:45;;;;;;;6.22;1.67;;;21.30;94.10;;;;;;5117657;27;20047;-70
2023/10/08 12:23:19;;;;;;;5.95;1.90;;;21.20;94.20;;;;;;5114020;27;20075;-70
2023/10/08 12:25:51;;;;;;;6.18;2.00;;;21.10;94.60;;;;;;5115803;27;20393;-71
2023/10/08 12:28:18;;;;;;;7.00;1.60;;;21.60;94.80;;;;;;5116716;27;20051;-71
2023/10/08 12:30:45;;;;;;;6.10;1.55;;;21.80;94.30;;;;;;5115594;27;20054;-71
2023/10/08 12:33:15;;;;;;;6.28;1.40;;;22.30;94.10;;;;;;5114937;27;20054;-70
2023/10/08 12:35:44;;;;;;;9.30;1.77;;;23.20;93.20;;;;;;5117612;27;20103;-70
2023/10/08 12:38:12;;;;;;;7.05;1.95;;;24.30;91.80;;;;;;5121193;27;20061;-70
2023/10/08 12:40:52;;;;;;;13.43;2.03;;;25.10;90.70;;;;;;5117716;27;20425;-71
2023/10/08 12:43:21;;;;;;;7.38;1.73;;;25.60;90.10;;;;;;5117018;27;20077;-69
2023/10/08 12:45:51;;;;;;;6.38;1.67;;;25.80;89.00;;;;;;5138277;27;20051;-71
2023/10/08 12:48:24;;;;;;;10.35;1.90;;;26.10;88.00;;;;;;5126022;27;20075;-72
2023/10/08 12:50:56;;;;;;;5.63;1.50;;;26.40;86.00;;;;;;5125177;27;20100;-71
2023/10/08 12:53:26;;;;;;;8.82;2.15;;;27.10;86.40;;;;;;5131590;27;20578;-71
2023/10/08 12:55:56;;;;;;;4.60;1.33;;;27.60;84.70;;;;;;5121812;27;20138;-70
2023/10/08 12:58:25;;;;;;;6.53;1.80;;;27.80;83.80;;;;;;5127310;27;20578;-70
2023/10/08 13:00:57;;;;;;;5.85;1.42;;;27.10;83.40;;;;;;5120164;27;20053;-71
2023/10/08 13:03:25;;;;;;;6.80;1.63;;;26.90;84.20;;;;;;5118022;27;20043;-71
2023/10/08 13:05:53;;;;;;;4.40;1.48;;;26.00;84.20;;;;;;5131824;27;20048;-70
2023/10/08 13:08:21;;;;;;;9.30;2.30;;;25.20;85.20;;;;;;5135289;27;20123;-71
2023/10/08 13:10:49;;;;;;;7.88;1.75;;;23.80;86.90;;;;;;5121621;27;20062;-71
2023/10/08 13:13:18;;;;;;;9.43;2.10;;;23.30;88.60;;;;;;5117592;27;20043;-70
2023/10/08 13:15:46;;;;;;;6.35;1.38;;;22.80;89.80;;;;;;5121684;27;20131;-72
2023/10/08 13:18:13;;;;;;;7.03;1.80;;;23.40;90.00;;;;;;5117826;27;20449;-72